createdAt,value
2022-12-28T00:01:24.299Z,4.43
2022-12-28T00:03:52.392Z,1.40
2022-12-28T00:06:21.158Z,1.83
2022-12-28T00:08:48.014Z,1.60
2022-12-28T00:11:27.558Z,1.10
2022-12-28T00:13:56.501Z,1.30
2022-12-28T00:16:27.779Z,1.83
2022-12-28T00:18:58.919Z,1.60
2022-12-28T00:21:26.538Z,1.50
2022-12-28T00:23:57.415Z,1.50
2022-12-28T00:26:26.607Z,1.55
2022-12-28T00:28:56.924Z,1.45
2022-12-28T00:31:28.604Z,1.48
2022-12-28T00:33:56.130Z,1.38
2022-12-28T00:36:22.938Z,1.42
2022-12-28T00:38:49.702Z,1.25
2022-12-28T00:41:16.409Z,1.40
2022-12-28T00:43:43.266Z,1.45
2022-12-28T00:46:10.510Z,1.13
2022-12-28T00:48:37.512Z,1.60
2022-12-28T00:51:18.870Z,1.27
2022-12-28T00:53:45.984Z,1.15
2022-12-28T00:56:15.733Z,1.40
2022-12-28T00:58:43.360Z,1.55
2022-12-28T01:01:18.590Z,2.40
2022-12-28T01:03:46.111Z,3.10
2022-12-28T01:06:16.599Z,2.47
2022-12-28T01:08:43.619Z,3.38
2022-12-28T01:11:15.926Z,3.45
2022-12-28T01:13:42.726Z,2.45
2022-12-28T01:16:27.645Z,2.20
2022-12-28T01:18:57.107Z,2.20
2022-12-28T01:21:26.218Z,5.22
2022-12-28T01:23:57.809Z,4.90
2022-12-28T01:26:25.183Z,6.05
2022-12-28T01:28:51.951Z,5.97
2022-12-28T01:31:20.494Z,5.90
2022-12-28T01:33:48.615Z,6.10
2022-12-28T01:36:21.463Z,6.60
2022-12-28T01:38:52.026Z,6.28
2022-12-28T01:41:19.749Z,6.47
2022-12-28T01:43:52.501Z,5.73
2022-12-28T01:46:39.688Z,5.35
2022-12-28T01:49:26.515Z,5.40
2022-12-28T01:51:53.311Z,6.93
2022-12-28T01:54:23.209Z,5.88
2022-12-28T01:56:50.720Z,5.13
2022-12-28T01:59:21.734Z,5.93
2022-12-28T02:01:49.163Z,5.18
2022-12-28T02:04:16.370Z,4.43
2022-12-28T02:06:45.734Z,5.18
2022-12-28T02:09:19.039Z,4.73
2022-12-28T02:11:45.916Z,5.30
2022-12-28T02:14:14.663Z,4.70
2022-12-28T02:16:43.646Z,5.20
2022-12-28T02:19:18.557Z,5.50
2022-12-28T02:22:03.779Z,5.63
2022-12-28T02:25:13.203Z,6.00
2022-12-28T02:28:17.420Z,5.18
2022-12-28T02:30:51.219Z,5.25
2022-12-28T02:33:31.360Z,4.75
2022-12-28T02:36:06.511Z,4.93
2022-12-28T02:38:39.884Z,5.47
2022-12-28T02:41:11.020Z,5.68
2022-12-28T02:43:39.175Z,7.10
2022-12-28T02:46:29.222Z,18.58
2022-12-28T02:49:14.427Z,11.10
2022-12-28T02:52:19.182Z,7.03
2022-12-28T02:55:08.031Z,5.95
2022-12-28T02:57:55.863Z,6.90
2022-12-28T03:00:26.479Z,6.80
2022-12-28T03:03:19.543Z,7.53
2022-12-28T03:06:19.823Z,6.32
2022-12-28T03:08:58.953Z,6.93
2022-12-28T03:11:48.826Z,7.35
2022-12-28T03:14:43.023Z,7.72
2022-12-28T03:17:29.418Z,8.10
2022-12-28T03:20:19.137Z,7.18
2022-12-28T03:23:06.208Z,7.85
2022-12-28T03:25:58.843Z,7.72
2022-12-28T03:28:51.295Z,7.20
2022-12-28T03:31:25.017Z,7.30
2022-12-28T03:34:09.067Z,7.35
2022-12-28T03:36:59.939Z,9.30
2022-12-28T03:39:31.085Z,8.30
2022-12-28T03:42:43.772Z,7.95
2022-12-28T03:45:45.034Z,7.13
2022-12-28T03:48:16.449Z,6.68
2022-12-28T03:50:46.935Z,7.20
2022-12-28T03:53:22.939Z,7.15
2022-12-28T03:55:52.475Z,7.10
2022-12-28T03:58:21.985Z,7.50
2022-12-28T04:00:49.918Z,7.40
2022-12-28T04:03:18.820Z,7.70
2022-12-28T04:05:45.638Z,7.60
2022-12-28T04:08:12.749Z,7.55
2022-12-28T04:10:39.640Z,8.13
2022-12-28T04:13:06.455Z,7.07
2022-12-28T04:16:03.440Z,7.40
2022-12-28T04:18:32.601Z,7.57
2022-12-28T04:21:00.216Z,7.97
2022-12-28T04:23:28.328Z,7.33
2022-12-28T04:26:12.557Z,7.80
2022-12-28T04:28:42.130Z,7.47
2022-12-28T04:31:19.874Z,7.95
2022-12-28T04:33:53.823Z,7.13
2022-12-28T04:36:20.659Z,7.27
2022-12-28T04:38:49.836Z,7.13
2022-12-28T04:41:16.596Z,8.05
2022-12-28T04:43:43.379Z,8.38
2022-12-28T04:46:15.190Z,10.77
2022-12-28T04:48:42.107Z,9.83
2022-12-28T04:51:20.927Z,10.05
2022-12-28T04:53:48.113Z,8.60
2022-12-28T04:56:16.120Z,6.88
2022-12-28T04:58:43.114Z,7.95
2022-12-28T05:01:12.453Z,8.67
2022-12-28T05:03:41.224Z,8.10
2022-12-28T05:06:12.104Z,8.75
2022-12-28T05:08:39.255Z,7.68
2022-12-28T05:11:09.118Z,8.15
2022-12-28T05:13:36.231Z,7.60
2022-12-28T05:16:05.009Z,7.03
2022-12-28T05:18:31.861Z,7.72
2022-12-28T05:21:04.449Z,7.57
2022-12-28T05:23:32.407Z,7.63
2022-12-28T05:25:59.379Z,7.90
2022-12-28T05:28:26.563Z,7.88
2022-12-28T05:30:53.662Z,8.45
2022-12-28T05:33:20.416Z,9.13
2022-12-28T05:35:47.149Z,35.70
2022-12-28T05:38:13.944Z,44.00
2022-12-28T05:40:40.769Z,33.70
2022-12-28T05:43:07.667Z,35.78
2022-12-28T05:45:34.439Z,40.63
2022-12-28T05:48:01.491Z,36.35
2022-12-28T05:50:28.369Z,33.53
2022-12-28T05:52:56.390Z,18.05
2022-12-28T05:55:23.246Z,20.45
2022-12-28T05:57:49.971Z,21.20
2022-12-28T06:00:17.534Z,23.33
2022-12-28T06:02:44.460Z,21.77
2022-12-28T06:05:11.355Z,12.90
2022-12-28T06:07:38.555Z,8.40
2022-12-28T06:10:05.767Z,9.73
2022-12-28T06:12:32.600Z,9.10
2022-12-28T06:14:59.675Z,12.10
2022-12-28T06:17:26.495Z,16.60
2022-12-28T06:19:53.618Z,12.20
2022-12-28T06:22:20.447Z,10.75
2022-12-28T06:24:47.377Z,8.82
2022-12-28T06:27:14.079Z,8.23
2022-12-28T06:29:40.847Z,10.35
2022-12-28T06:32:07.701Z,11.80
2022-12-28T06:34:34.565Z,11.52
2022-12-28T06:37:01.522Z,10.63
2022-12-28T06:39:29.223Z,10.23
2022-12-28T06:41:56.042Z,10.57
2022-12-28T06:44:22.799Z,10.32
2022-12-28T06:46:49.546Z,9.90
2022-12-28T06:49:16.270Z,8.82
2022-12-28T06:51:43.026Z,8.23
2022-12-28T06:54:10.826Z,7.82
2022-12-28T06:56:38.146Z,7.80
2022-12-28T06:59:05.485Z,7.70
2022-12-28T07:01:38.393Z,7.85
2022-12-28T07:04:07.143Z,7.97
2022-12-28T07:06:37.749Z,8.20
2022-12-28T07:09:07.821Z,8.00
2022-12-28T07:11:35.464Z,8.65
2022-12-28T07:14:02.400Z,9.93
2022-12-28T07:18:59.955Z,9.93
2022-12-28T07:21:32.413Z,10.70
2022-12-28T07:23:59.586Z,12.68
2022-12-28T07:26:29.082Z,10.43
2022-12-28T07:28:57.358Z,8.27
2022-12-28T07:31:30.160Z,7.95
2022-12-28T07:33:59.341Z,7.00
2022-12-28T07:36:29.270Z,7.10
2022-12-28T07:38:56.731Z,6.80
2022-12-28T07:41:29.089Z,6.87
2022-12-28T07:43:58.376Z,6.25
2022-12-28T07:46:28.467Z,6.03
2022-12-28T07:48:57.121Z,5.93
2022-12-28T07:51:33.470Z,6.20
2022-12-28T07:54:01.293Z,6.83
2022-12-28T07:56:30.240Z,6.07
2022-12-28T07:59:02.237Z,7.40
2022-12-28T08:01:31.981Z,14.10
2022-12-28T08:04:01.168Z,10.02
2022-12-28T08:06:29.828Z,8.10
2022-12-28T08:08:59.877Z,9.93
2022-12-28T08:11:31.942Z,9.55
2022-12-28T08:13:59.837Z,10.80
2022-12-28T08:16:28.456Z,10.07
2022-12-28T08:18:55.515Z,8.60
2022-12-28T08:21:25.844Z,8.95
2022-12-28T08:23:52.797Z,8.60
2022-12-28T08:26:28.893Z,6.90
2022-12-28T08:28:58.752Z,6.95
2022-12-28T08:31:28.981Z,6.03
2022-12-28T08:33:58.189Z,6.13
2022-12-28T08:36:25.171Z,5.93
2022-12-28T08:38:52.051Z,5.20
2022-12-28T08:41:21.536Z,5.72
2022-12-28T08:43:48.424Z,5.77
2022-12-28T08:46:17.695Z,6.15
2022-12-28T08:48:45.951Z,5.80
2022-12-28T08:51:15.296Z,6.22
2022-12-28T08:53:42.790Z,5.88
2022-12-28T08:56:20.267Z,5.67
2022-12-28T08:58:48.815Z,5.60
2022-12-28T09:01:20.140Z,5.97
2022-12-28T09:03:49.544Z,5.18
2022-12-28T09:06:22.687Z,4.75
2022-12-28T09:09:05.364Z,5.00
2022-12-28T09:11:34.902Z,5.25
2022-12-28T09:14:02.973Z,5.10
2022-12-28T09:16:29.921Z,4.78
2022-12-28T09:18:59.059Z,4.30
2022-12-28T09:21:28.747Z,3.83
2022-12-28T09:23:55.917Z,3.67
2022-12-28T09:26:25.216Z,4.40
2022-12-28T09:28:54.340Z,3.70
2022-12-28T09:31:23.783Z,3.20
2022-12-28T09:36:50.907Z,3.30
2022-12-28T09:39:20.902Z,3.40
2022-12-28T09:42:11.733Z,3.35
2022-12-28T09:44:47.174Z,3.22
2022-12-28T09:47:32.568Z,4.30
2022-12-28T09:50:14.445Z,4.05
2022-12-28T09:52:49.502Z,3.90
2022-12-28T09:55:18.890Z,3.85
2022-12-28T09:57:51.755Z,4.20
2022-12-28T10:00:39.938Z,3.53
2022-12-28T10:03:35.135Z,3.65
2022-12-28T10:06:03.363Z,3.47
2022-12-28T10:08:30.487Z,3.13
2022-12-28T10:11:01.935Z,3.38
2022-12-28T10:13:54.541Z,4.70
2022-12-28T10:16:24.129Z,4.80
2022-12-28T10:18:51.344Z,6.00
2022-12-28T10:21:25.438Z,5.07
2022-12-28T10:24:29.842Z,4.57
2022-12-28T10:26:46.954Z,3.35
2022-12-28T10:29:19.032Z,3.20
2022-12-28T10:32:03.832Z,3.25
2022-12-28T10:34:34.167Z,3.55
2022-12-28T10:37:14.569Z,3.22
2022-12-28T10:39:51.274Z,3.20
2022-12-28T10:42:23.170Z,3.85
2022-12-28T10:44:50.564Z,3.42
2022-12-28T10:47:30.361Z,3.45
2022-12-28T10:52:56.232Z,3.00
2022-12-28T10:55:31.488Z,3.88
2022-12-28T10:58:30.850Z,3.30
2022-12-28T11:01:12.574Z,2.83
2022-12-28T11:04:00.150Z,3.38
2022-12-28T11:06:32.457Z,3.20
2022-12-28T11:09:20.887Z,3.30
2022-12-28T11:11:50.356Z,3.58
2022-12-28T11:14:36.303Z,4.63
2022-12-28T11:17:15.172Z,5.45
2022-12-28T11:19:42.451Z,5.33
2022-12-28T11:22:15.431Z,6.47
2022-12-28T11:24:42.393Z,6.40
2022-12-28T11:27:16.700Z,6.18
2022-12-28T11:29:46.931Z,6.00
2022-12-28T11:32:24.204Z,6.03
2022-12-28T11:34:54.409Z,6.57
2022-12-28T11:37:21.450Z,6.10
2022-12-28T11:39:50.274Z,6.05
2022-12-28T11:42:40.654Z,6.20
2022-12-28T11:45:20.470Z,6.05
2022-12-28T11:47:47.251Z,5.65
2022-12-28T11:50:33.105Z,6.40
2022-12-28T11:53:01.162Z,6.55
2022-12-28T11:55:47.341Z,5.50
2022-12-28T11:58:35.621Z,5.55
2022-12-28T12:01:02.503Z,6.55
2022-12-28T12:03:57.054Z,5.90
2022-12-28T12:06:45.156Z,5.50
2022-12-28T12:09:21.193Z,5.80
2022-12-28T12:11:52.251Z,8.70
2022-12-28T12:14:23.860Z,10.25
2022-12-28T12:16:55.708Z,6.05
2022-12-28T12:19:33.176Z,5.63
2022-12-28T12:22:25.188Z,6.60
2022-12-28T12:25:29.243Z,5.60
2022-12-28T12:28:04.987Z,6.10
2022-12-28T12:30:32.318Z,6.15
2022-12-28T12:33:03.030Z,5.85
2022-12-28T12:35:34.775Z,5.70
2022-12-28T12:38:20.659Z,5.10
2022-12-28T12:41:07.770Z,6.30
2022-12-28T12:44:11.835Z,5.65
2022-12-28T12:47:02.075Z,6.05
2022-12-28T12:49:56.505Z,5.88
2022-12-28T12:52:30.298Z,6.10
2022-12-28T12:55:42.204Z,5.53
2022-12-28T12:58:25.069Z,6.45
2022-12-28T13:01:18.427Z,6.00
2022-12-28T13:03:52.005Z,5.80
2022-12-28T13:06:22.619Z,5.65
2022-12-28T13:09:04.819Z,6.15
2022-12-28T13:11:37.198Z,6.45
2022-12-28T13:14:05.043Z,5.63
2022-12-28T13:16:32.699Z,5.70
2022-12-28T13:19:05.151Z,6.22
2022-12-28T13:21:43.873Z,6.88
2022-12-28T13:24:40.222Z,6.10
2022-12-28T13:27:18.772Z,6.18
2022-12-28T13:29:51.936Z,6.88
2022-12-28T13:32:34.308Z,6.65
2022-12-28T13:35:17.233Z,6.80
2022-12-28T13:37:44.039Z,6.15
2022-12-28T13:40:12.078Z,5.68
2022-12-28T13:43:04.719Z,5.57
2022-12-28T13:45:31.772Z,5.43
2022-12-28T13:47:58.543Z,5.18
2022-12-28T13:50:32.383Z,5.40
2022-12-28T13:53:08.771Z,5.70
2022-12-28T13:55:51.837Z,5.30
2022-12-28T13:58:23.564Z,5.82
2022-12-28T14:00:52.695Z,4.90
2022-12-28T14:03:21.816Z,5.25
2022-12-28T14:05:55.103Z,5.28
2022-12-28T14:08:23.061Z,5.20
2022-12-28T14:10:51.191Z,5.03
2022-12-28T14:13:19.375Z,5.40
2022-12-28T14:15:47.654Z,5.20
2022-12-28T14:18:16.276Z,5.35
2022-12-28T14:20:51.034Z,5.10
2022-12-28T14:23:21.335Z,5.20
2022-12-28T14:25:49.222Z,5.25
2022-12-28T14:28:42.188Z,5.13
2022-12-28T14:31:11.798Z,5.00
2022-12-28T14:34:01.088Z,5.40
2022-12-28T14:36:34.067Z,5.57
2022-12-28T14:39:04.927Z,5.03
2022-12-28T14:41:41.471Z,5.63
2022-12-28T14:44:17.760Z,5.53
2022-12-28T14:46:44.794Z,5.25
2022-12-28T14:49:26.678Z,6.20
2022-12-28T14:51:53.871Z,6.15
2022-12-28T14:54:26.077Z,6.45
2022-12-28T14:57:00.784Z,6.13
2022-12-28T14:59:32.040Z,6.65
2022-12-28T15:01:58.905Z,8.48
2022-12-28T15:04:30.014Z,7.00
2022-12-28T15:06:56.900Z,7.70
2022-12-28T15:09:23.624Z,7.35
2022-12-28T15:12:10.294Z,7.32
2022-12-28T15:14:37.376Z,8.82
2022-12-28T15:17:04.781Z,11.38
2022-12-28T15:19:31.748Z,10.18
2022-12-28T15:21:58.539Z,8.77
2022-12-28T15:24:33.341Z,9.50
2022-12-28T15:27:01.096Z,9.45
2022-12-28T15:29:56.205Z,9.65
2022-12-28T15:32:18.986Z,8.65
2022-12-28T15:34:45.893Z,8.23
2022-12-28T15:37:12.751Z,8.77
2022-12-28T15:39:39.548Z,7.97
2022-12-28T15:42:06.419Z,8.10
2022-12-28T15:44:33.912Z,8.25
2022-12-28T15:47:00.922Z,8.25
2022-12-28T15:49:28.161Z,7.13
2022-12-28T15:51:55.516Z,7.05
2022-12-28T15:54:22.350Z,7.93
2022-12-28T15:56:56.717Z,7.82
2022-12-28T15:59:23.659Z,8.05
2022-12-28T16:01:50.731Z,7.70
2022-12-28T16:04:44.199Z,7.90
2022-12-28T16:07:41.637Z,7.60
2022-12-28T16:10:09.203Z,8.80
2022-12-28T16:13:03.153Z,8.55
2022-12-28T16:15:30.413Z,8.77
2022-12-28T16:24:31.354Z,11.02
2022-12-28T16:26:58.109Z,15.95
2022-12-28T16:29:24.834Z,22.52
2022-12-28T16:31:52.596Z,13.03
2022-12-28T16:34:19.368Z,13.68
2022-12-28T16:36:47.062Z,12.13
2022-12-28T16:39:16.117Z,13.23
2022-12-28T16:41:43.482Z,16.23
2022-12-28T16:44:15.744Z,20.10
2022-12-28T16:46:42.627Z,16.50
2022-12-28T16:49:13.254Z,13.25
2022-12-28T16:51:42.031Z,12.77
2022-12-28T16:54:12.318Z,11.77
2022-12-28T16:56:39.171Z,11.27
2022-12-28T16:59:05.972Z,9.68
2022-12-28T17:01:32.882Z,11.30
2022-12-28T17:04:04.140Z,11.10
2022-12-28T17:06:31.833Z,9.75
2022-12-28T17:09:04.137Z,11.93
2022-12-28T17:11:31.732Z,11.18
2022-12-28T17:14:10.785Z,11.60
2022-12-28T17:16:38.707Z,12.32
2022-12-28T17:19:06.103Z,11.43
2022-12-28T17:21:34.055Z,6.80
2022-12-28T17:24:01.466Z,9.68
2022-12-28T17:26:28.603Z,8.70
2022-12-28T17:28:56.433Z,7.95
2022-12-28T17:31:24.365Z,9.82
2022-12-28T17:33:54.611Z,8.07
2022-12-28T17:36:22.666Z,9.35
2022-12-28T17:38:49.806Z,9.05
2022-12-28T17:41:23.615Z,9.48
2022-12-28T17:43:56.250Z,9.38
2022-12-28T17:46:26.069Z,9.10
2022-12-28T17:48:57.665Z,9.23
2022-12-28T17:51:25.561Z,9.50
2022-12-28T17:53:54.847Z,10.40
2022-12-28T17:56:21.559Z,10.70
2022-12-28T17:58:49.480Z,9.40
2022-12-28T18:01:16.408Z,9.25
2022-12-28T18:03:43.425Z,9.55
2022-12-28T18:06:10.541Z,16.75
2022-12-28T18:08:37.349Z,33.70
2022-12-28T18:11:04.212Z,16.80
2022-12-28T18:13:31.027Z,20.88
2022-12-28T18:15:57.941Z,20.15
2022-12-28T18:18:24.784Z,20.35
2022-12-28T18:21:03.799Z,12.45
2022-12-28T18:23:31.479Z,11.80
2022-12-28T18:26:02.636Z,16.77
2022-12-28T18:28:29.835Z,16.25
2022-12-28T18:31:01.451Z,13.43
2022-12-28T18:33:29.115Z,13.55
2022-12-28T18:35:55.902Z,11.23
2022-12-28T18:38:23.057Z,7.32
2022-12-28T18:40:52.054Z,6.47
2022-12-28T18:43:19.031Z,4.65
2022-12-28T18:45:59.988Z,3.80
2022-12-28T18:48:27.956Z,1.93
2022-12-28T18:50:57.442Z,2.00
2022-12-28T18:53:25.468Z,1.80
2022-12-28T18:56:16.609Z,1.90
2022-12-28T18:58:44.210Z,2.35
2022-12-28T19:04:07.854Z,2.00
2022-12-28T19:06:35.250Z,1.73
2022-12-28T19:09:03.884Z,2.60
2022-12-28T19:11:30.975Z,2.60
2022-12-28T19:13:57.793Z,2.85
2022-12-28T19:16:31.200Z,2.05
2022-12-28T19:19:01.308Z,2.35
2022-12-28T19:21:32.676Z,2.92
2022-12-28T19:24:06.874Z,3.05
2022-12-28T19:26:35.279Z,3.53
2022-12-28T19:29:03.553Z,2.33
2022-12-28T19:31:30.754Z,3.60
2022-12-28T19:33:57.558Z,3.65
2022-12-28T19:36:24.788Z,3.40
2022-12-28T19:38:54.452Z,2.53
2022-12-28T19:41:21.714Z,6.82
2022-12-28T19:43:48.748Z,5.70
2022-12-28T19:46:21.540Z,7.80
2022-12-28T19:48:48.753Z,9.90
2022-12-28T19:51:15.907Z,9.73
2022-12-28T19:53:42.913Z,9.63
2022-12-28T19:56:16.494Z,12.45
2022-12-28T19:58:44.687Z,14.07
2022-12-28T20:01:20.354Z,19.13
2022-12-28T20:03:47.998Z,17.40
2022-12-28T20:06:22.318Z,19.92
2022-12-28T20:08:51.326Z,17.80
2022-12-28T20:11:20.271Z,15.80
2022-12-28T20:13:51.865Z,16.25
2022-12-28T20:16:19.124Z,14.87
2022-12-28T20:18:47.244Z,16.02
2022-12-28T20:21:19.648Z,15.02
2022-12-28T20:23:48.579Z,16.70
2022-12-28T20:26:15.620Z,16.80
2022-12-28T20:28:42.613Z,14.73
2022-12-28T20:31:13.467Z,15.18
2022-12-28T20:33:40.918Z,15.23
2022-12-28T20:36:11.858Z,14.15
2022-12-28T20:38:38.687Z,14.05
2022-12-28T20:41:32.791Z,14.83
2022-12-28T20:44:01.016Z,13.45
2022-12-28T20:46:28.418Z,12.93
2022-12-28T20:48:55.752Z,7.10
2022-12-28T20:51:22.770Z,10.43
2022-12-28T20:53:49.686Z,11.37
2022-12-28T20:56:16.415Z,13.27
2022-12-28T20:58:43.481Z,13.50
2022-12-28T21:01:13.130Z,14.40
2022-12-28T21:03:40.513Z,13.82
2022-12-28T21:06:07.862Z,12.85
2022-12-28T21:08:35.206Z,12.57
2022-12-28T21:11:02.426Z,11.77
2022-12-28T21:13:29.358Z,12.43
2022-12-28T21:15:56.950Z,11.77
2022-12-28T21:18:23.819Z,11.53
2022-12-28T21:20:58.929Z,12.10
2022-12-28T21:23:27.232Z,10.88
2022-12-28T21:26:00.310Z,11.90
2022-12-28T21:28:27.163Z,11.70
2022-12-28T21:30:55.564Z,12.03
2022-12-28T21:33:22.639Z,10.55
2022-12-28T21:36:06.274Z,10.43
2022-12-28T21:38:35.959Z,10.93
2022-12-28T21:41:06.166Z,10.63
2022-12-28T21:43:33.452Z,11.50
2022-12-28T21:46:09.038Z,10.77
2022-12-28T21:48:37.114Z,10.55
2022-12-28T21:51:29.628Z,10.20
2022-12-28T21:54:00.593Z,9.50
2022-12-28T21:56:28.753Z,9.67
2022-12-28T21:58:57.024Z,10.07
2022-12-28T22:01:43.135Z,9.70
2022-12-28T22:04:33.304Z,10.05
2022-12-28T22:07:00.539Z,11.68
2022-12-28T22:09:46.348Z,11.33
2022-12-28T22:12:32.996Z,11.65
2022-12-28T22:15:31.761Z,11.63
2022-12-28T22:18:01.921Z,11.15
2022-12-28T22:20:29.685Z,13.70
2022-12-28T22:22:59.047Z,12.53
2022-12-28T22:25:27.180Z,13.13
2022-12-28T22:27:54.318Z,13.15
2022-12-28T22:30:21.676Z,9.68
2022-12-28T22:32:48.503Z,8.65
2022-12-28T22:35:17.452Z,8.03
2022-12-28T22:37:44.237Z,7.25
2022-12-28T22:40:12.047Z,5.78
2022-12-28T22:42:46.825Z,4.88
2022-12-28T22:45:16.437Z,8.48
2022-12-28T22:47:43.495Z,7.30
2022-12-28T22:50:13.108Z,9.05
2022-12-28T22:52:40.135Z,9.00
2022-12-28T22:55:08.084Z,9.30
2022-12-28T22:57:35.187Z,11.13
2022-12-28T23:00:02.059Z,10.70
2022-12-28T23:02:30.449Z,16.33
2022-12-28T23:04:57.462Z,17.70
2022-12-28T23:07:24.151Z,11.18
2022-12-28T23:09:50.912Z,10.32
2022-12-28T23:12:17.712Z,10.50
2022-12-28T23:15:03.215Z,10.70
2022-12-28T23:17:30.058Z,10.25
2022-12-28T23:20:15.308Z,9.63
2022-12-28T23:23:02.291Z,10.20
2022-12-28T23:25:47.827Z,10.40
2022-12-28T23:28:16.050Z,9.50
2022-12-28T23:30:46.570Z,10.98
2022-12-28T23:33:14.027Z,11.52
2022-12-28T23:35:40.825Z,9.52
2022-12-28T23:38:07.596Z,11.23
2022-12-28T23:40:34.429Z,12.30
2022-12-28T23:43:01.130Z,8.13
2022-12-28T23:45:27.905Z,5.60
2022-12-28T23:47:55.570Z,5.60
2022-12-28T23:50:22.510Z,4.77
2022-12-28T23:52:49.273Z,8.30
2022-12-28T23:55:16.153Z,6.38
2022-12-28T23:57:42.902Z,3.88
